createdAt,value
2022-12-15T00:03:07.076Z,-1.69
2022-12-15T00:13:06.940Z,-1.66
2022-12-15T00:23:07.150Z,-1.66
2022-12-15T00:33:07.399Z,-1.66
2022-12-15T00:43:07.492Z,-1.64
2022-12-15T00:53:07.628Z,-1.62
2022-12-15T01:03:08.056Z,-1.62
2022-12-15T01:13:08.018Z,-1.70
2022-12-15T01:23:08.114Z,-1.77
2022-12-15T01:33:08.454Z,-1.74
2022-12-15T01:43:08.429Z,-1.78
2022-12-15T01:53:08.701Z,-1.80
2022-12-15T02:03:08.942Z,-1.75
2022-12-15T02:13:08.999Z,-1.70
2022-12-15T02:23:09.212Z,-1.64
2022-12-15T02:33:09.352Z,-1.62
2022-12-15T02:43:09.566Z,-1.66
2022-12-15T02:53:09.732Z,-1.62
2022-12-15T03:03:10.262Z,-1.63
2022-12-15T03:13:10.132Z,-1.62
2022-12-15T03:23:10.349Z,-1.51
2022-12-15T03:33:10.499Z,-1.56
2022-12-15T03:43:11.154Z,-1.51
2022-12-15T03:53:10.838Z,-1.62
2022-12-15T04:03:11.254Z,-1.63
2022-12-15T04:13:11.162Z,-1.66
2022-12-15T04:23:11.379Z,-1.64
2022-12-15T04:33:11.515Z,-1.63
2022-12-15T04:43:11.740Z,-1.67
2022-12-15T04:53:11.883Z,-1.64
2022-12-15T05:03:18.178Z,-1.70
2022-12-15T05:13:13.217Z,-1.69
2022-12-15T05:23:12.761Z,-1.75
2022-12-15T05:33:12.568Z,-1.72
2022-12-15T05:43:12.784Z,-1.72
2022-12-15T05:53:12.920Z,-1.70
2022-12-15T06:03:13.274Z,-1.72
2022-12-15T06:13:13.238Z,-1.66
2022-12-15T06:23:13.464Z,-1.64
2022-12-15T06:33:13.624Z,-1.56
2022-12-15T06:43:13.828Z,-1.56
2022-12-15T06:53:13.969Z,-1.62
2022-12-15T07:03:14.430Z,-1.60
2022-12-15T07:13:14.374Z,-1.57
2022-12-15T07:23:14.555Z,-1.49
2022-12-15T07:33:14.701Z,-1.41
2022-12-15T07:43:14.920Z,-1.41
2022-12-15T07:53:15.060Z,-1.28
2022-12-15T08:03:16.764Z,-1.18
2022-12-15T08:13:38.073Z,-0.75
2022-12-15T08:23:16.653Z,-0.42
2022-12-15T08:33:15.827Z,-0.36
2022-12-15T08:43:16.037Z,-0.41
2022-12-15T08:53:32.182Z,-0.29
2022-12-15T09:03:17.357Z,-0.19
2022-12-15T09:13:16.542Z,0.89
2022-12-15T09:23:16.797Z,1.60
2022-12-15T09:33:17.002Z,1.75
2022-12-15T09:43:33.866Z,1.24
2022-12-15T09:53:53.145Z,1.61
2022-12-15T10:03:18.758Z,1.65
2022-12-15T10:13:17.687Z,1.47
2022-12-15T10:23:18.105Z,1.07
2022-12-15T10:33:18.247Z,2.17
2022-12-15T10:43:18.334Z,2.34
2022-12-15T10:53:18.376Z,1.52
2022-12-15T11:03:18.983Z,1.60
2022-12-15T11:13:18.712Z,1.54
2022-12-15T11:23:18.958Z,1.83
2022-12-15T11:33:19.129Z,1.93
2022-12-15T11:43:19.386Z,1.58
2022-12-15T11:53:19.543Z,1.76
2022-12-15T12:03:20.004Z,1.78
2022-12-15T12:13:19.890Z,1.73
2022-12-15T12:23:20.134Z,1.61
2022-12-15T12:33:20.302Z,2.01
2022-12-15T12:43:20.593Z,1.76
2022-12-15T12:53:20.661Z,1.79
2022-12-15T13:03:20.916Z,1.54
2022-12-15T13:13:21.156Z,0.98
2022-12-15T13:23:21.274Z,0.89
2022-12-15T13:33:21.445Z,1.25
2022-12-15T13:43:21.691Z,1.51
2022-12-15T13:53:21.962Z,1.55
2022-12-15T14:03:22.349Z,1.19
2022-12-15T14:13:22.245Z,1.22
2022-12-15T14:23:22.563Z,0.94
2022-12-15T14:33:28.125Z,1.00
2022-12-15T14:43:23.813Z,0.97
2022-12-15T14:53:22.989Z,0.83
2022-12-15T15:13:23.421Z,0.78
2022-12-15T15:23:23.655Z,0.78
2022-12-15T15:33:23.843Z,0.70
2022-12-15T15:43:24.064Z,0.64
2022-12-15T15:53:24.250Z,0.57
2022-12-15T16:03:24.708Z,0.53
2022-12-15T16:13:26.258Z,0.51
2022-12-15T16:23:24.846Z,0.41
2022-12-15T16:33:25.015Z,0.34
2022-12-15T16:43:26.936Z,0.28
2022-12-15T16:53:25.642Z,0.24
2022-12-15T17:03:26.178Z,0.25
2022-12-15T17:13:28.710Z,0.28
2022-12-15T17:23:27.202Z,0.24
2022-12-15T17:33:27.463Z,0.24
2022-12-15T17:43:33.622Z,0.21
2022-12-15T17:53:27.748Z,0.15
2022-12-15T18:03:27.017Z,0.12
2022-12-15T18:13:27.934Z,0.15
2022-12-15T18:23:27.345Z,0.16
2022-12-15T18:33:27.189Z,0.15
2022-12-15T18:43:27.415Z,0.20
2022-12-15T18:53:27.847Z,0.25
2022-12-15T19:03:27.847Z,0.21
2022-12-15T19:13:27.977Z,0.21
2022-12-15T19:23:28.068Z,0.18
2022-12-15T19:33:28.264Z,0.18
2022-12-15T19:43:28.567Z,0.15
2022-12-15T19:53:28.713Z,0.10
2022-12-15T20:03:29.128Z,-0.04
2022-12-15T20:13:29.633Z,-0.15
2022-12-15T20:23:29.753Z,-0.19
2022-12-15T20:33:29.639Z,-0.27
2022-12-15T20:43:29.924Z,-0.29
2022-12-15T20:53:29.959Z,-0.39
2022-12-15T21:03:30.416Z,-0.45
2022-12-15T21:13:30.328Z,-0.52
2022-12-15T21:23:30.196Z,-0.59
2022-12-15T21:33:30.368Z,-0.60
2022-12-15T21:43:30.560Z,-0.66
2022-12-15T21:53:30.710Z,-0.66
2022-12-15T22:03:31.007Z,-0.69
2022-12-15T22:13:31.041Z,-0.72
2022-12-15T22:23:31.231Z,-0.75
2022-12-15T22:33:31.405Z,-0.77
2022-12-15T22:43:31.616Z,-0.80
2022-12-15T22:53:31.773Z,-0.81
2022-12-15T23:03:32.379Z,-0.80
2022-12-15T23:13:32.447Z,-0.86
2022-12-15T23:23:32.848Z,-0.87
2022-12-15T23:33:32.979Z,-0.87
2022-12-15T23:43:32.988Z,-0.87
2022-12-15T23:53:33.301Z,-0.91
